createdAt,value
2019-02-22T00:00:23.839Z,16.5
2019-02-22T00:01:25.994Z,16.4
2019-02-22T00:02:28.136Z,16.4
2019-02-22T00:03:30.011Z,16.5
2019-02-22T00:04:32.197Z,16.4
2019-02-22T00:05:34.374Z,16.4
2019-02-22T00:06:36.542Z,16.5
2019-02-22T00:07:38.992Z,16.5
2019-02-22T00:08:41.153Z,16.4
2019-02-22T00:10:48.272Z,16.4
2019-02-22T00:11:50.159Z,16.5
2019-02-22T00:12:52.317Z,16.5
2019-02-22T00:13:54.727Z,16.4
2019-02-22T00:14:56.625Z,16.5
2019-02-22T00:15:58.773Z,16.5
2019-02-22T00:17:01.205Z,16.5
2019-02-22T00:18:03.642Z,16.4
2019-02-22T00:19:06.073Z,16.5
2019-02-22T00:20:08.494Z,16.4
2019-02-22T00:21:10.402Z,16.6
2019-02-22T00:22:12.572Z,16.5
2019-02-22T00:23:15.034Z,16.6
2019-02-22T00:24:17.178Z,16.5
2019-02-22T00:25:19.611Z,16.5
2019-02-22T00:26:22.037Z,16.5
2019-02-22T00:27:24.474Z,16.5
2019-02-22T00:28:26.625Z,16.4
2019-02-22T00:29:28.773Z,16.5
2019-02-22T00:30:30.379Z,16.4
2019-02-22T00:31:32.792Z,16.6
2019-02-22T00:32:34.950Z,16.4
2019-02-22T00:33:37.366Z,16.6
2019-02-22T00:34:39.337Z,16.6
2019-02-22T00:35:41.597Z,16.6
2019-02-22T00:36:43.967Z,16.6
2019-02-22T00:37:46.207Z,16.7
2019-02-22T00:38:48.109Z,16.6
2019-02-22T00:39:49.977Z,16.6
2019-02-22T00:40:52.393Z,16.6
2019-02-22T00:41:54.557Z,16.6
2019-02-22T00:42:56.740Z,16.6
2019-02-22T00:43:58.893Z,16.6
2019-02-22T00:45:01.327Z,16.6
2019-02-22T00:46:03.202Z,16.7
2019-02-22T00:47:05.350Z,16.7
2019-02-22T00:48:07.516Z,16.5
2019-02-22T00:49:09.949Z,16.7
2019-02-22T00:50:11.532Z,16.7
2019-02-22T00:51:13.692Z,16.6
2019-02-22T00:52:16.132Z,16.7
2019-02-22T00:53:18.361Z,16.7
2019-02-22T00:54:20.782Z,16.7
2019-02-22T00:55:23.212Z,16.7
2019-02-22T00:56:25.379Z,16.6
2019-02-22T00:57:27.574Z,16.6
2019-02-22T00:58:30.008Z,16.7
2019-02-22T00:59:32.444Z,16.6
2019-02-22T01:00:34.321Z,16.7
2019-02-22T01:01:36.448Z,16.7
2019-02-22T01:02:38.889Z,16.7
2019-02-22T01:03:41.035Z,16.7
2019-02-22T01:04:43.185Z,16.7
2019-02-22T01:05:45.375Z,16.7
2019-02-22T01:06:47.806Z,16.7
2019-02-22T01:07:49.954Z,16.7
2019-02-22T01:08:52.385Z,16.7
2019-02-22T01:09:54.810Z,16.7
2019-02-22T01:10:56.944Z,16.7
2019-02-22T01:11:59.375Z,16.7
2019-02-22T01:13:01.804Z,16.7
2019-02-22T01:14:04.236Z,16.8
2019-02-22T01:15:06.684Z,16.8
2019-02-22T01:16:08.860Z,16.9
2019-02-22T01:17:11.286Z,16.9
2019-02-22T01:18:13.446Z,16.8
2019-02-22T01:19:15.614Z,16.8
2019-02-22T01:20:17.514Z,16.8
2019-02-22T01:21:19.937Z,16.7
2019-02-22T01:22:22.365Z,16.8
2019-02-22T01:23:24.264Z,16.7
2019-02-22T01:24:26.134Z,16.8
2019-02-22T01:25:28.304Z,16.8
2019-02-22T01:26:30.734Z,16.9
2019-02-22T01:27:32.905Z,16.9
2019-02-22T01:28:35.392Z,16.8
2019-02-22T01:29:37.817Z,16.9
2019-02-22T01:30:40.242Z,16.8
2019-02-22T01:31:42.137Z,16.8
2019-02-22T01:32:44.576Z,17
2019-02-22T01:33:47.006Z,16.9
2019-02-22T01:34:48.344Z,16.9
2019-02-22T01:35:50.490Z,16.9
2019-02-22T01:36:52.735Z,16.9
2019-02-22T01:37:54.620Z,17
2019-02-22T01:38:56.764Z,17
2019-02-22T01:39:59.196Z,17
2019-02-22T01:41:01.710Z,16.9
2019-02-22T01:42:04.138Z,16.9
2019-02-22T01:43:06.294Z,17
2019-02-22T01:44:08.447Z,16.9
2019-02-22T01:45:10.597Z,16.9
2019-02-22T01:46:13.035Z,16.9
2019-02-22T01:47:14.922Z,16.9
2019-02-22T01:48:17.364Z,16.9
2019-02-22T01:49:19.782Z,17
2019-02-22T01:50:22.256Z,16.9
2019-02-22T01:51:24.409Z,17
2019-02-22T01:52:26.854Z,16.9
2019-02-22T01:53:28.737Z,17
2019-02-22T01:54:30.330Z,17
2019-02-22T01:55:32.504Z,16.9
2019-02-22T01:56:34.403Z,17
2019-02-22T01:57:36.833Z,17.1
2019-02-22T01:59:44.254Z,16.9
2019-02-22T02:00:46.694Z,17
2019-02-22T02:01:48.585Z,17
2019-02-22T02:02:50.747Z,16.9
2019-02-22T02:03:53.168Z,16.9
2019-02-22T02:04:55.326Z,16.9
2019-02-22T02:05:57.752Z,17
2019-02-22T02:06:59.927Z,17
2019-02-22T02:08:02.077Z,16.9
2019-02-22T02:09:04.504Z,17
2019-02-22T02:10:06.934Z,17
2019-02-22T02:11:09.364Z,16.9
2019-02-22T02:12:11.798Z,17
2019-02-22T02:13:14.226Z,17
2019-02-22T02:14:16.401Z,16.9
2019-02-22T02:15:18.832Z,17
2019-02-22T02:16:20.975Z,17
2019-02-22T02:17:23.136Z,17
2019-02-22T02:18:25.566Z,17
2019-02-22T02:19:27.731Z,17
2019-02-22T02:20:30.233Z,17
2019-02-22T02:21:32.682Z,17
2019-02-22T02:22:34.834Z,17
2019-02-22T02:23:37.262Z,17
2019-02-22T02:24:40.281Z,17
2019-02-22T02:25:42.152Z,17
2019-02-22T02:26:44.584Z,17
2019-02-22T02:27:47.003Z,17.1
2019-02-22T02:29:54.507Z,17
2019-02-22T02:30:56.988Z,17
2019-02-22T02:31:59.141Z,17
2019-02-22T02:33:01.284Z,17
2019-02-22T02:34:03.704Z,17.1
2019-02-22T02:35:05.858Z,17.1
2019-02-22T02:36:08.151Z,17
2019-02-22T02:37:10.436Z,17
2019-02-22T02:38:12.591Z,17
2019-02-22T02:39:14.462Z,17
2019-02-22T02:40:16.352Z,17
2019-02-22T02:41:18.503Z,17.1
2019-02-22T02:42:20.643Z,17.1
2019-02-22T02:43:23.070Z,17.1
2019-02-22T02:44:25.520Z,17
2019-02-22T02:45:27.958Z,17
2019-02-22T02:46:30.374Z,17.1
2019-02-22T02:47:32.236Z,17
2019-02-22T02:48:34.656Z,17
2019-02-22T02:49:36.532Z,17.1
2019-02-22T02:50:38.955Z,17
2019-02-22T02:51:41.380Z,17
2019-02-22T02:52:43.510Z,17.1
2019-02-22T02:53:45.935Z,17.1
2019-02-22T02:54:48.352Z,17
2019-02-22T02:55:50.501Z,17.1
2019-02-22T02:56:52.924Z,17
2019-02-22T02:57:55.083Z,17
2019-02-22T02:58:57.221Z,17.1
2019-02-22T02:59:59.638Z,17
2019-02-22T03:01:02.436Z,17
2019-02-22T03:02:04.887Z,17.1
2019-02-22T03:03:07.363Z,17.1
2019-02-22T03:04:09.791Z,17
2019-02-22T03:05:11.400Z,17
2019-02-22T03:06:13.551Z,17.1
2019-02-22T03:07:15.704Z,17.2
2019-02-22T03:08:17.859Z,17.1
2019-02-22T03:09:20.006Z,17.1
2019-02-22T03:10:22.196Z,17.1
2019-02-22T03:11:24.353Z,17.1
2019-02-22T03:12:26.256Z,17.1
2019-02-22T03:13:28.576Z,17
2019-02-22T03:14:30.993Z,17.1
2019-02-22T03:15:33.417Z,17.1
2019-02-22T03:16:35.572Z,17.1
2019-02-22T03:17:37.451Z,17.1
2019-02-22T03:18:39.612Z,17.2
2019-02-22T03:19:42.034Z,17.1
2019-02-22T03:20:44.179Z,17.1
2019-02-22T03:21:46.611Z,17.1
2019-02-22T03:22:49.044Z,17.1
2019-02-22T03:23:51.483Z,17.1
2019-02-22T03:24:54.250Z,17.1
2019-02-22T03:25:56.395Z,17.1
2019-02-22T03:26:58.881Z,17.1
2019-02-22T03:28:01.037Z,17.1
2019-02-22T03:29:03.461Z,17.1
2019-02-22T03:30:05.321Z,17.1
2019-02-22T03:31:08.121Z,17.2
2019-02-22T03:32:10.749Z,17.1
2019-02-22T03:33:13.277Z,17.1
2019-02-22T03:34:15.495Z,17.1
2019-02-22T03:35:17.922Z,17.2
2019-02-22T03:36:34.724Z,17.1
2019-02-22T03:37:36.873Z,17.1
2019-02-22T03:38:39.008Z,17.1
2019-02-22T03:39:41.171Z,17.1
2019-02-22T03:40:43.304Z,17.2
2019-02-22T03:41:45.740Z,17.1
2019-02-22T03:42:47.895Z,17.1
2019-02-22T03:43:50.324Z,17.1
2019-02-22T03:44:52.743Z,17.2
2019-02-22T03:45:55.170Z,17.2
2019-02-22T03:46:57.325Z,17.1
2019-02-22T03:47:59.751Z,17.1
2019-02-22T03:49:01.905Z,17.1
2019-02-22T03:50:04.335Z,17.2
2019-02-22T03:51:06.500Z,17.1
2019-02-22T03:52:08.925Z,17.2
2019-02-22T03:53:11.356Z,17.2
2019-02-22T03:54:13.794Z,17.1
2019-02-22T03:55:15.959Z,17.1
2019-02-22T03:56:18.124Z,17.1
2019-02-22T03:57:20.274Z,17.2
2019-02-22T03:58:22.712Z,17.1
2019-02-22T03:59:25.135Z,17.2
2019-02-22T04:00:27.566Z,17.1
2019-02-22T04:01:29.713Z,17.2
2019-02-22T04:02:31.598Z,17.1
2019-02-22T04:03:33.205Z,17.1
2019-02-22T04:04:35.064Z,17.1
2019-02-22T04:05:37.199Z,17
2019-02-22T04:06:39.620Z,17.1
2019-02-22T04:07:42.043Z,17.1
2019-02-22T04:08:44.478Z,17.1
2019-02-22T04:09:46.901Z,17
2019-02-22T04:10:49.069Z,17
2019-02-22T04:11:51.500Z,17.1
2019-02-22T04:12:53.646Z,17
2019-02-22T04:13:56.073Z,17
2019-02-22T04:14:58.202Z,17
2019-02-22T04:15:59.801Z,17.1
2019-02-22T04:17:02.258Z,17.1
2019-02-22T04:18:04.678Z,17
2019-02-22T04:19:07.101Z,16.9
2019-02-22T04:20:09.523Z,16.9
2019-02-22T04:21:11.954Z,17
2019-02-22T04:22:13.837Z,16.9
2019-02-22T04:23:15.993Z,16.9
2019-02-22T04:24:18.422Z,16.9
2019-02-22T04:25:20.531Z,16.9
2019-02-22T04:26:22.690Z,16.9
2019-02-22T04:27:25.114Z,17
2019-02-22T04:28:27.542Z,16.9
2019-02-22T04:29:29.964Z,16.9
2019-02-22T04:30:32.388Z,16.9
2019-02-22T04:31:34.811Z,16.8
2019-02-22T04:32:36.956Z,16.8
2019-02-22T04:33:39.392Z,16.8
2019-02-22T04:34:41.545Z,16.8
2019-02-22T04:35:43.683Z,16.9
2019-02-22T04:36:45.845Z,16.8
2019-02-22T04:37:48.269Z,16.8
2019-02-22T04:38:50.448Z,16.8
2019-02-22T04:39:52.687Z,16.8
2019-02-22T04:40:54.857Z,16.8
2019-02-22T04:41:58.838Z,16.8
2019-02-22T04:43:01.505Z,16.7
2019-02-22T04:44:03.737Z,16.8
2019-02-22T04:45:06.192Z,16.9
2019-02-22T04:46:08.356Z,16.8
2019-02-22T04:47:10.817Z,16.8
2019-02-22T04:48:13.263Z,16.8
2019-02-22T04:49:15.706Z,16.8
2019-02-22T04:50:18.154Z,16.8
2019-02-22T04:51:20.599Z,16.7
2019-02-22T04:52:23.055Z,16.8
2019-02-22T04:53:25.507Z,16.8
2019-02-22T04:54:27.943Z,16.7
2019-02-22T04:55:30.384Z,16.8
2019-02-22T04:56:32.835Z,16.8
2019-02-22T04:57:35.273Z,16.7
2019-02-22T04:58:37.683Z,16.8
2019-02-22T04:59:40.124Z,16.7
2019-02-22T05:00:42.006Z,16.7
2019-02-22T05:01:44.149Z,16.7
2019-02-22T05:02:46.614Z,16.8
2019-02-22T05:03:48.505Z,16.7
2019-02-22T05:04:50.397Z,16.7
2019-02-22T05:05:52.804Z,16.7
2019-02-22T05:06:55.232Z,16.8
2019-02-22T05:07:57.662Z,16.8
2019-02-22T05:08:59.946Z,16.8
2019-02-22T05:10:02.375Z,16.8
2019-02-22T05:11:04.543Z,16.8
2019-02-22T05:13:11.968Z,16.8
2019-02-22T05:14:14.161Z,16.7
2019-02-22T05:15:16.585Z,16.8
2019-02-22T05:16:19.010Z,16.8
2019-02-22T05:17:21.436Z,16.7
2019-02-22T05:18:23.867Z,16.7
2019-02-22T05:19:26.288Z,16.7
2019-02-22T05:20:28.452Z,16.8
2019-02-22T05:21:30.621Z,16.7
2019-02-22T05:22:33.034Z,16.7
2019-02-22T05:23:34.903Z,16.8
2019-02-22T05:24:37.101Z,16.7
2019-02-22T05:25:39.267Z,16.7
2019-02-22T05:26:41.734Z,16.7
2019-02-22T05:27:44.175Z,16.7
2019-02-22T05:28:46.034Z,16.7
2019-02-22T05:29:48.451Z,16.7
2019-02-22T05:30:50.615Z,16.7
2019-02-22T05:31:52.755Z,16.7
2019-02-22T05:32:55.223Z,16.8
2019-02-22T05:33:57.660Z,16.6
2019-02-22T05:35:00.025Z,16.7
2019-02-22T05:36:02.442Z,16.7
2019-02-22T05:37:05.041Z,16.7
2019-02-22T05:38:07.191Z,16.7
2019-02-22T05:40:14.602Z,16.7
2019-02-22T05:41:17.045Z,16.6
2019-02-22T05:43:24.459Z,16.7
2019-02-22T05:44:26.606Z,16.7
2019-02-22T05:45:29.071Z,16.7
2019-02-22T05:46:30.974Z,16.7
2019-02-22T05:47:33.499Z,16.7
2019-02-22T05:48:38.720Z,16.7
2019-02-22T05:49:41.161Z,16.7
2019-02-22T05:50:43.422Z,16.6
2019-02-22T05:51:45.855Z,16.6
2019-02-22T05:52:47.998Z,16.7
2019-02-22T05:53:50.431Z,16.6
2019-02-22T05:54:52.576Z,16.7
2019-02-22T05:55:54.733Z,16.7
2019-02-22T05:56:57.161Z,16.7
2019-02-22T05:57:58.760Z,16.7
2019-02-22T05:59:00.905Z,16.6
2019-02-22T06:00:03.342Z,16.7
2019-02-22T06:01:07.135Z,16.7
2019-02-22T06:02:09.405Z,16.7
2019-02-22T06:03:11.830Z,16.6
2019-02-22T06:04:14.266Z,16.8
2019-02-22T06:05:16.856Z,16.7
2019-02-22T06:06:19.021Z,16.7
2019-02-22T06:07:21.436Z,16.7
2019-02-22T06:08:23.035Z,16.7
2019-02-22T06:09:25.470Z,16.7
2019-02-22T06:10:27.901Z,16.6
2019-02-22T06:11:30.067Z,16.7
2019-02-22T06:13:37.543Z,16.6
2019-02-22T06:14:39.995Z,16.7
2019-02-22T06:15:42.529Z,16.7
2019-02-22T06:16:45.024Z,16.7
2019-02-22T06:17:47.214Z,16.6
2019-02-22T06:18:49.643Z,16.7
2019-02-22T06:19:52.089Z,16.7
2019-02-22T06:20:54.251Z,16.7
2019-02-22T06:21:56.673Z,16.8
2019-02-22T06:22:58.832Z,16.6
2019-02-22T06:24:03.637Z,16.6
2019-02-22T06:25:06.126Z,16.7
2019-02-22T06:26:08.585Z,16.6
2019-02-22T06:27:11.094Z,16.7
2019-02-22T06:28:13.253Z,16.7
2019-02-22T06:29:15.771Z,16.7
2019-02-22T06:30:18.205Z,16.6
2019-02-22T06:31:20.394Z,16.6
2019-02-22T06:32:22.834Z,16.7
2019-02-22T06:33:25.322Z,16.6
2019-02-22T06:34:27.520Z,16.6
2019-02-22T06:35:29.947Z,16.6
2019-02-22T06:36:32.516Z,16.6
2019-02-22T06:37:34.980Z,16.6
2019-02-22T06:38:37.114Z,16.6
2019-02-22T06:39:39.273Z,16.6
2019-02-22T06:40:41.707Z,16.6
2019-02-22T06:41:44.135Z,16.6
2019-02-22T06:42:46.823Z,16.7
2019-02-22T06:43:49.527Z,16.6
2019-02-22T06:44:51.447Z,16.6
2019-02-22T06:45:53.900Z,16.6
2019-02-22T06:46:56.065Z,16.6
2019-02-22T06:47:58.499Z,16.7
2019-02-22T06:49:00.913Z,16.6
2019-02-22T06:50:03.336Z,16.6
2019-02-22T06:51:05.491Z,16.6
2019-02-22T06:52:07.645Z,16.6
2019-02-22T06:53:10.075Z,16.7
2019-02-22T06:54:12.230Z,16.6
2019-02-22T06:55:14.381Z,16.6
2019-02-22T06:56:16.576Z,16.6
2019-02-22T06:57:18.992Z,16.6
2019-02-22T06:58:20.485Z,16.7
2019-02-22T06:59:22.926Z,16.7
2019-02-22T07:00:25.363Z,16.6
2019-02-22T07:01:27.808Z,16.6
2019-02-22T07:02:29.749Z,16.6
2019-02-22T07:03:31.901Z,16.6
2019-02-22T07:04:34.069Z,16.6
2019-02-22T07:05:36.245Z,16.6
2019-02-22T07:06:38.664Z,16.6
2019-02-22T07:07:40.824Z,16.6
2019-02-22T07:08:42.985Z,16.6
2019-02-22T07:09:44.839Z,16.7
2019-02-22T07:10:46.983Z,16.6
2019-02-22T07:11:49.576Z,16.7
2019-02-22T07:13:57.041Z,16.6
2019-02-22T07:14:58.914Z,16.6
2019-02-22T07:16:01.416Z,16.6
2019-02-22T07:17:03.551Z,16.5
2019-02-22T07:18:05.761Z,16.6
2019-02-22T07:19:08.202Z,16.6
2019-02-22T07:20:10.105Z,16.6
2019-02-22T07:21:12.551Z,16.6
2019-02-22T07:22:14.460Z,16.6
2019-02-22T07:23:16.891Z,16.6
2019-02-22T07:24:19.407Z,16.6
2019-02-22T07:25:21.845Z,16.6
2019-02-22T07:26:24.275Z,16.6
2019-02-22T07:27:26.775Z,16.6
2019-02-22T07:28:28.925Z,16.5
2019-02-22T07:29:31.078Z,16.6
2019-02-22T07:30:33.301Z,16.7
2019-02-22T07:31:35.726Z,16.6
2019-02-22T07:32:37.995Z,16.6
2019-02-22T07:33:40.260Z,16.6
2019-02-22T07:34:42.438Z,16.5
2019-02-22T07:35:44.607Z,16.6
2019-02-22T07:36:46.770Z,16.6
2019-02-22T07:37:49.403Z,16.6
2019-02-22T07:38:51.833Z,16.7
2019-02-22T07:39:54.255Z,16.7
2019-02-22T07:40:56.409Z,16.6
2019-02-22T07:41:58.842Z,16.6
2019-02-22T07:44:06.264Z,16.6
2019-02-22T07:45:08.682Z,16.6
2019-02-22T07:46:11.132Z,16.5
2019-02-22T07:47:13.301Z,16.7
2019-02-22T07:48:15.733Z,16.6
2019-02-22T07:49:18.157Z,16.4
2019-02-22T07:50:20.323Z,16.7
2019-02-22T07:51:22.764Z,16.5
2019-02-22T07:52:24.899Z,16.6
2019-02-22T07:53:26.798Z,16.7
2019-02-22T07:54:29.222Z,16.6
2019-02-22T07:55:31.722Z,16.7
2019-02-22T07:56:33.600Z,16.6
2019-02-22T07:57:35.797Z,16.6
2019-02-22T07:58:42.439Z,16.6
2019-02-22T07:59:44.565Z,16.7
2019-02-22T08:00:46.445Z,16.5
2019-02-22T08:01:48.815Z,16.6
2019-02-22T08:02:50.978Z,16.6
2019-02-22T08:03:53.429Z,16.6
2019-02-22T08:04:55.858Z,16.6
2019-02-22T08:05:58.039Z,16.5
2019-02-22T08:07:00.466Z,16.5
2019-02-22T08:08:02.926Z,16.6
2019-02-22T08:09:05.093Z,16.7
2019-02-22T08:10:07.264Z,16.6
2019-02-22T08:11:09.403Z,16.6
2019-02-22T08:12:11.851Z,16.6
2019-02-22T08:14:19.325Z,16.6
2019-02-22T08:15:21.216Z,16.6
2019-02-22T08:16:23.656Z,16.5
2019-02-22T08:17:26.104Z,16.6
2019-02-22T08:18:28.280Z,16.6
2019-02-22T08:19:30.187Z,16.6
2019-02-22T08:20:32.320Z,16.5
2019-02-22T08:21:34.756Z,16.6
2019-02-22T08:22:37.191Z,16.7
2019-02-22T08:23:39.365Z,16.6
2019-02-22T08:24:41.800Z,16.5
2019-02-22T08:25:44.218Z,16.6
2019-02-22T08:26:46.403Z,16.5
2019-02-22T08:28:53.238Z,16.5
2019-02-22T08:29:55.113Z,16.6
2019-02-22T08:30:57.552Z,16.5
2019-02-22T08:31:59.760Z,16.5
2019-02-22T08:33:02.186Z,16.6
2019-02-22T08:34:04.335Z,16.5
2019-02-22T08:35:06.764Z,16.5
2019-02-22T08:36:09.205Z,16.5
2019-02-22T08:37:11.653Z,16.6
2019-02-22T08:38:14.104Z,16.5
2019-02-22T08:39:16.532Z,16.7
2019-02-22T08:40:18.679Z,16.5
2019-02-22T08:41:21.114Z,16.6
2019-02-22T08:42:23.260Z,16.5
2019-02-22T08:44:30.398Z,16.5
2019-02-22T08:45:32.836Z,16.5
2019-02-22T08:46:35.267Z,16.5
2019-02-22T08:47:37.150Z,16.5
2019-02-22T08:48:39.320Z,16.6
2019-02-22T08:49:41.752Z,16.6
2019-02-22T08:50:43.958Z,16.5
2019-02-22T08:51:46.180Z,16.5
2019-02-22T08:52:48.608Z,16.5
2019-02-22T08:53:50.760Z,16.6
2019-02-22T08:54:53.201Z,16.6
2019-02-22T08:55:55.730Z,16.5
2019-02-22T08:56:58.179Z,16.6
2019-02-22T08:58:00.322Z,16.6
2019-02-22T08:59:02.745Z,16.5
2019-02-22T09:00:04.911Z,16.5
2019-02-22T09:01:07.367Z,16.5
2019-02-22T09:02:09.805Z,16.6
2019-02-22T09:03:12.330Z,16.5
2019-02-22T09:04:14.774Z,16.6
2019-02-22T09:05:17.205Z,16.6
2019-02-22T09:06:19.394Z,16.6
2019-02-22T09:07:21.822Z,16.5
2019-02-22T09:08:24.278Z,16.5
2019-02-22T09:09:26.176Z,16.6
2019-02-22T09:10:28.617Z,16.5
2019-02-22T09:11:31.045Z,16.6
2019-02-22T09:12:33.496Z,16.5
2019-02-22T09:14:40.908Z,16.5
2019-02-22T09:15:43.057Z,16.5
2019-02-22T09:16:45.479Z,16.6
2019-02-22T09:17:46.777Z,16.5
2019-02-22T09:18:48.953Z,16.5
2019-02-22T09:19:51.130Z,16.6
2019-02-22T09:20:53.568Z,16.5
2019-02-22T09:21:55.998Z,16.5
2019-02-22T09:22:58.433Z,16.6
2019-02-22T09:24:00.603Z,16.5
2019-02-22T09:25:02.756Z,16.5
2019-02-22T09:26:05.216Z,16.5
2019-02-22T09:27:07.656Z,16.5
2019-02-22T09:28:10.089Z,16.6
2019-02-22T09:29:12.262Z,16.5
2019-02-22T09:30:14.692Z,16.5
2019-02-22T09:31:16.836Z,16.5
2019-02-22T09:32:19.003Z,16.5
2019-02-22T09:33:21.140Z,16.5
2019-02-22T09:34:23.598Z,16.5
2019-02-22T09:35:25.742Z,16.6
2019-02-22T09:36:27.955Z,16.5
2019-02-22T09:37:30.497Z,16.5
2019-02-22T09:38:32.634Z,16.6
2019-02-22T09:39:35.067Z,16.5
2019-02-22T09:40:37.565Z,16.6
2019-02-22T09:41:39.712Z,16.5
2019-02-22T09:42:42.164Z,16.6
2019-02-22T09:44:49.581Z,16.5
2019-02-22T09:45:51.776Z,16.5
2019-02-22T09:46:54.218Z,16.5
2019-02-22T09:47:56.358Z,16.5
2019-02-22T09:48:58.787Z,16.5
2019-02-22T09:50:00.957Z,16.5
2019-02-22T09:51:02.849Z,16.5
2019-02-22T09:52:04.758Z,16.5
2019-02-22T09:53:07.189Z,16.5
2019-02-22T09:54:09.345Z,16.6
2019-02-22T09:55:11.777Z,16.5
2019-02-22T09:56:13.935Z,16.6
2019-02-22T09:57:15.822Z,16.5
2019-02-22T09:58:18.256Z,16.5
2019-02-22T09:59:20.135Z,16.4
2019-02-22T10:00:22.572Z,16.6
2019-02-22T10:01:24.999Z,16.6
2019-02-22T10:02:26.885Z,16.5
2019-02-22T10:03:28.785Z,16.5
2019-02-22T10:04:30.942Z,16.6
2019-02-22T10:05:33.375Z,16.5
2019-02-22T10:06:35.819Z,16.5
2019-02-22T10:07:37.980Z,16.6
2019-02-22T10:08:39.889Z,16.5
2019-02-22T10:09:42.036Z,16.4
2019-02-22T10:10:44.468Z,16.4
2019-02-22T10:11:46.049Z,16.5
2019-02-22T10:12:47.921Z,16.5
2019-02-22T10:13:50.350Z,16.6
2019-02-22T10:14:52.776Z,16.4
2019-02-22T10:15:54.702Z,16.6
2019-02-22T10:16:56.853Z,16.5
2019-02-22T10:17:59.028Z,16.5
2019-02-22T10:19:01.453Z,16.6
2019-02-22T10:20:03.347Z,16.5
2019-02-22T10:21:05.787Z,16.6
2019-02-22T10:22:07.405Z,16.5
2019-02-22T10:23:09.838Z,16.5
2019-02-22T10:24:11.711Z,16.7
2019-02-22T10:25:14.135Z,16.5
2019-02-22T10:26:16.598Z,16.6
2019-02-22T10:27:18.748Z,16.4
2019-02-22T10:28:21.183Z,16.5
2019-02-22T10:29:23.615Z,16.5
2019-02-22T10:30:26.042Z,16.6
2019-02-22T10:31:27.953Z,16.6
2019-02-22T10:32:29.845Z,16.6
2019-02-22T10:34:36.985Z,16.6
2019-02-22T10:35:39.417Z,16.5
2019-02-22T10:37:46.836Z,16.6
2019-02-22T10:38:49.070Z,16.5
2019-02-22T10:39:51.489Z,16.5
2019-02-22T10:40:53.941Z,16.5
2019-02-22T10:41:56.096Z,16.6
2019-02-22T10:42:58.256Z,16.5
2019-02-22T10:44:00.439Z,16.6
2019-02-22T10:45:02.889Z,16.5
2019-02-22T10:46:05.341Z,16.5
2019-02-22T10:47:06.957Z,16.5
2019-02-22T10:48:09.409Z,16.5
2019-02-22T10:49:11.850Z,16.6
2019-02-22T10:50:14.012Z,16.6
2019-02-22T10:51:16.458Z,16.5
2019-02-22T10:52:18.882Z,16.5
2019-02-22T10:53:21.308Z,16.6
2019-02-22T10:54:23.745Z,16.6
2019-02-22T10:55:25.646Z,16.5
2019-02-22T10:56:28.864Z,16.5
2019-02-22T10:57:30.763Z,16.5
2019-02-22T10:58:33.189Z,16.6
2019-02-22T10:59:35.628Z,16.5
2019-02-22T11:00:37.790Z,16.5
2019-02-22T11:01:39.942Z,16.6
2019-02-22T11:02:42.078Z,16.5
2019-02-22T11:03:44.579Z,16.4
2019-02-22T11:04:46.518Z,16.6
2019-02-22T11:05:48.684Z,16.5
2019-02-22T11:06:50.544Z,16.4
2019-02-22T11:07:52.735Z,16.6
2019-02-22T11:08:55.142Z,16.6
2019-02-22T11:09:57.032Z,16.6
2019-02-22T11:10:59.463Z,16.5
2019-02-22T11:12:01.888Z,16.5
2019-02-22T11:13:04.066Z,16.5
2019-02-22T11:14:06.496Z,16.6
2019-02-22T11:15:08.392Z,16.5
2019-02-22T11:16:10.244Z,16.6
2019-02-22T11:17:12.399Z,16.6
2019-02-22T11:18:14.822Z,16.5
2019-02-22T11:19:16.714Z,16.6
2019-02-22T11:20:19.148Z,16.4
2019-02-22T11:21:21.598Z,16.5
2019-02-22T11:22:23.778Z,16.6
2019-02-22T11:23:26.205Z,16.6
2019-02-22T11:24:28.644Z,16.5
2019-02-22T11:25:30.548Z,16.6
2019-02-22T11:26:32.704Z,16.6
2019-02-22T11:27:34.872Z,16.5
2019-02-22T11:28:37.036Z,16.4
2019-02-22T11:29:39.492Z,16.5
2019-02-22T11:30:41.912Z,16.6
2019-02-22T11:31:44.356Z,16.4
2019-02-22T11:32:46.780Z,16.5
2019-02-22T11:33:49.556Z,16.5
2019-02-22T11:34:51.990Z,16.5
2019-02-22T11:35:54.430Z,16.6
2019-02-22T11:36:56.555Z,16.5
2019-02-22T11:37:58.984Z,16.4
2019-02-22T11:39:01.153Z,16.6
2019-02-22T11:40:03.583Z,16.5
2019-02-22T11:41:05.721Z,16.5
2019-02-22T11:42:07.847Z,16.6
2019-02-22T11:43:10.308Z,16.5
2019-02-22T11:44:12.467Z,16.6
2019-02-22T11:45:14.892Z,16.6
2019-02-22T11:46:17.045Z,16.5
2019-02-22T11:47:19.235Z,16.6
2019-02-22T11:48:21.433Z,16.5
2019-02-22T11:49:23.919Z,16.5
2019-02-22T11:50:26.350Z,16.5
2019-02-22T11:51:28.785Z,16.6
2019-02-22T11:52:30.967Z,16.5
2019-02-22T11:53:33.389Z,16.6
2019-02-22T11:54:35.825Z,16.5
2019-02-22T11:55:38.255Z,16.6
2019-02-22T11:56:40.112Z,16.6
2019-02-22T11:57:42.283Z,16.6
2019-02-22T11:58:44.175Z,16.6
2019-02-22T11:59:46.351Z,16.6
2019-02-22T12:00:48.562Z,16.6
2019-02-22T12:01:50.720Z,16.5
2019-02-22T12:02:53.147Z,16.5
2019-02-22T12:03:55.600Z,16.6
2019-02-22T12:04:58.106Z,16.5
2019-02-22T12:06:00.535Z,16.4
2019-02-22T12:07:02.974Z,16.5
2019-02-22T12:08:05.142Z,16.5
2019-02-22T12:09:07.048Z,16.5
2019-02-22T12:10:08.960Z,16.5
2019-02-22T12:11:11.393Z,16.5
2019-02-22T12:12:13.828Z,16.7
2019-02-22T12:13:15.993Z,16.6
2019-02-22T12:14:18.146Z,16.6
2019-02-22T12:15:20.462Z,16.5
2019-02-22T12:16:22.649Z,16.6
2019-02-22T12:17:24.502Z,16.6
2019-02-22T12:18:26.925Z,16.6
2019-02-22T12:19:29.115Z,16.5
2019-02-22T12:20:30.731Z,16.5
2019-02-22T12:21:32.649Z,16.5
2019-02-22T12:22:34.867Z,16.6
2019-02-22T12:23:37.280Z,16.5
2019-02-22T12:24:39.717Z,16.6
2019-02-22T12:25:44.506Z,16.5
2019-02-22T12:26:47.648Z,16.5
2019-02-22T12:27:49.812Z,16.6
2019-02-22T12:28:52.568Z,16.6
2019-02-22T12:29:54.711Z,16.6
2019-02-22T12:30:57.151Z,16.5
2019-02-22T12:31:59.342Z,16.7
2019-02-22T12:33:01.784Z,16.5
2019-02-22T12:34:04.217Z,16.5
2019-02-22T12:35:06.667Z,16.6
2019-02-22T12:36:10.228Z,16.6
2019-02-22T12:37:12.653Z,16.6
2019-02-22T12:38:14.547Z,16.6
2019-02-22T12:39:17.033Z,16.6
2019-02-22T12:40:19.530Z,16.7
2019-02-22T12:41:21.960Z,16.7
2019-02-22T12:42:24.395Z,16.6
2019-02-22T12:43:26.850Z,16.6
2019-02-22T12:44:29.336Z,16.6
2019-02-22T12:45:31.606Z,16.6
2019-02-22T12:46:33.785Z,16.6
2019-02-22T12:47:35.678Z,16.7
2019-02-22T12:48:37.851Z,16.6
2019-02-22T12:49:40.851Z,16.6
2019-02-22T12:50:43.003Z,16.6
2019-02-22T12:51:45.424Z,16.6
2019-02-22T12:52:48.008Z,16.6
2019-02-22T12:53:50.164Z,16.6
2019-02-22T12:54:52.071Z,16.5
2019-02-22T12:55:54.224Z,16.6
2019-02-22T12:56:58.736Z,16.6
2019-02-22T12:58:00.607Z,16.6
2019-02-22T12:59:03.035Z,16.6
2019-02-22T13:00:05.482Z,16.6
2019-02-22T13:01:07.921Z,16.6
2019-02-22T13:02:10.349Z,16.6
2019-02-22T13:03:12.218Z,16.7
2019-02-22T13:04:14.123Z,16.6
2019-02-22T13:05:16.572Z,16.7
2019-02-22T13:06:18.734Z,16.6
2019-02-22T13:07:21.259Z,16.5
2019-02-22T13:08:23.392Z,16.7
2019-02-22T13:10:30.287Z,16.7
2019-02-22T13:11:32.727Z,16.7
2019-02-22T13:12:35.142Z,16.6
2019-02-22T13:13:37.031Z,16.6
2019-02-22T13:14:38.923Z,16.6
2019-02-22T13:15:41.066Z,16.7
2019-02-22T13:16:43.502Z,16.5
2019-02-22T13:17:46.168Z,16.6
2019-02-22T13:18:48.594Z,16.7
2019-02-22T13:19:50.757Z,16.6
2019-02-22T13:20:53.550Z,16.6
2019-02-22T13:21:55.695Z,16.6
2019-02-22T13:22:57.843Z,16.6
2019-02-22T13:24:00.302Z,16.6
2019-02-22T13:25:02.441Z,16.6
2019-02-22T13:26:04.881Z,16.5
2019-02-22T13:27:07.334Z,16.6
2019-02-22T13:28:09.457Z,16.6
2019-02-22T13:29:11.341Z,16.7
2019-02-22T13:30:13.778Z,16.5
2019-02-22T13:31:16.220Z,16.6
2019-02-22T13:32:18.647Z,16.6
2019-02-22T13:33:21.110Z,16.7
2019-02-22T13:34:23.279Z,16.6
2019-02-22T13:35:25.806Z,16.7
2019-02-22T13:36:28.239Z,16.6
2019-02-22T13:37:30.187Z,16.6
2019-02-22T13:38:32.329Z,16.6
2019-02-22T13:39:34.756Z,16.6
2019-02-22T13:40:36.913Z,16.5
2019-02-22T13:41:39.335Z,16.5
2019-02-22T13:42:40.950Z,16.6
2019-02-22T13:43:43.391Z,16.5
2019-02-22T13:44:45.815Z,16.6
2019-02-22T13:45:47.903Z,16.5
2019-02-22T13:46:50.072Z,16.5
2019-02-22T13:53:05.720Z,16.6
2019-02-22T13:54:08.692Z,16.6
2019-02-22T13:55:11.119Z,16.5
2019-02-22T13:56:13.802Z,16.5
2019-02-22T13:57:16.293Z,16.5
2019-02-22T13:58:18.428Z,16.5
2019-02-22T13:59:20.584Z,16.6
2019-02-22T14:00:23.447Z,16.5
2019-02-22T14:01:25.605Z,16.5
2019-02-22T14:02:27.863Z,16.5
2019-02-22T14:03:30.294Z,16.5
2019-02-22T14:04:32.463Z,16.5
2019-02-22T14:05:35.042Z,16.5
2019-02-22T14:06:36.938Z,16.6
2019-02-22T14:07:39.247Z,16.6
2019-02-22T14:08:43.396Z,16.6
2019-02-22T14:09:45.584Z,16.5
2019-02-22T14:10:48.045Z,16.5
2019-02-22T14:11:50.491Z,16.6
2019-02-22T14:12:52.919Z,16.6
2019-02-22T14:13:54.853Z,16.4
2019-02-22T14:14:57.275Z,16.4
2019-02-22T14:15:59.702Z,16.5
2019-02-22T14:17:02.156Z,16.6